Time;durP1;ratioP1;P1;durP2;ratioP2;P2;SDS_P1;SDS_P2;PMS_P1;PMS_P2;Temp;Humidity;BMP_temperature;BMP_pressure;BME280_temperature;BME280_humidity;BME280_pressure;Samples;Min_cycle;Max_cycle;Signal;HPM_P1;HPM_P2
2022/04/07 16:41:57;;;;;;;;;;;;;;;15.97;65.48;96908.28;5854253;24;19958;31
2022/04/07 16:44:27;;;;;;;;;;;;;;;15.94;65.93;96897.19;4805499;29;19967;-72
2022/04/07 16:46:55;;;;;;;;;;;;;;;15.81;66.62;96885.25;4810175;29;19961;-72
2022/04/07 16:49:22;;;;;;;;;;;;;;;15.81;68.97;96891.66;4810755;29;20331;-72
2022/04/07 16:51:49;;;;;;;;;;;;;;;15.65;68.11;96897.56;4810100;29;20377;-72
2022/04/07 16:54:17;;;;;;;;;;;;;;;15.57;70.20;96865.31;4809942;29;19962;-72
2022/04/07 16:56:44;;;;;;;;;;;;;;;15.50;70.02;96888.16;4810239;29;19957;-72
2022/04/07 16:59:15;;;;;;;;;;;;;;;15.50;70.32;96874.06;4801555;29;19970;-74
2022/04/07 17:01:42;;;;;;;;;;;;;;;15.44;70.83;96892.78;4806952;29;20349;-72
2022/04/07 17:04:10;;;;;;;;;;;;;;;15.41;71.51;96888.06;4805393;29;19968;-72
2022/04/07 17:06:38;;;;;;;;;;;;;;;15.28;73.41;96882.56;4809380;29;19947;-73
2022/04/07 17:09:05;;;;;;;;;;;;;;;15.28;74.32;96874.13;4805925;29;19957;-72
2022/04/07 17:11:33;;;;;;;;;;;;;;;15.17;75.19;96870.91;4802815;29;19949;-73
2022/04/07 17:14:00;;;;;;;;;;;;;;;15.11;75.66;96862.28;4804721;29;20380;-73
2022/04/07 17:16:28;;;;;;;;;;;;;;;15.03;77.10;96848.97;4806672;29;19964;-73
2022/04/07 17:18:57;;;;;;;;;;;;;;;14.94;77.39;96866.59;4803028;29;20231;-72
2022/04/07 17:21:24;;;;;;;;;;;;;;;14.91;78.59;96861.09;4802581;29;19976;-72
2022/04/07 17:23:52;;;;;;;;;;;;;;;14.89;78.15;96872.03;4806674;29;19965;-72
2022/04/07 17:26:19;;;;;;;;;;;;;;;14.89;79.73;96855.16;4805317;29;19965;-73
2022/04/07 17:28:46;;;;;;;;;;;;;;;14.85;80.29;96875.00;4808041;29;19958;-73
2022/04/07 17:31:14;;;;;;;;;;;;;;;14.85;81.31;96896.72;4808448;29;19960;-73
2022/04/07 17:33:41;;;;;;;;;;;;;;;14.82;81.53;96911.69;4807187;29;19957;-73
2022/04/07 17:36:14;;;;;;;;;;;;;;;14.64;81.77;96895.50;4806802;29;19964;-73
2022/04/07 17:38:41;;;;;;;;;;;;;;;14.54;83.00;96887.44;4809193;29;19957;-73
2022/04/07 17:41:10;;;;;;;;;;;;;;;14.56;83.77;96880.13;4806914;29;20374;-72
2022/04/07 17:43:37;;;;;;;;;;;;;;;14.52;83.80;96887.13;4808809;29;19984;-72
2022/04/07 17:46:23;;;;;;;;;;;;;;;14.43;85.25;96899.09;4810995;29;20238;-72
2022/04/07 17:48:52;;;;;;;;;;;;;;;14.35;86.16;96909.78;4806594;29;19956;-72
2022/04/07 17:51:19;;;;;;;;;;;;;;;14.33;89.18;96895.41;4805936;29;19965;-72
2022/04/07 17:53:46;;;;;;;;;;;;;;;14.23;90.31;96919.03;4806969;29;19962;-73
2022/04/07 17:56:14;;;;;;;;;;;;;;;14.20;91.71;96905.91;4801095;29;19954;-72
2022/04/07 17:58:42;;;;;;;;;;;;;;;14.16;93.74;96904.44;4806331;29;19951;-72
2022/04/07 18:01:10;;;;;;;;;;;;;;;14.16;95.73;96907.25;4818175;29;20378;-72
2022/04/07 18:03:38;;;;;;;;;;;;;;;14.07;97.32;96907.97;4794760;29;19956;-72
2022/04/07 18:06:05;;;;;;;;;;;;;;;14.01;100.00;96920.25;4801345;29;19951;-72
2022/04/07 18:08:34;;;;;;;;;;;;;;;13.92;100.00;96914.53;4808569;29;19958;-72
2022/04/07 18:11:03;;;;;;;;;;;;;;;13.90;100.00;96912.19;4808266;29;19957;-72
2022/04/07 18:13:31;;;;;;;;;;;;;;;13.91;100.00;96912.97;4807744;29;19967;-72
2022/04/07 18:16:00;;;;;;;;;;;;;;;13.89;100.00;96921.06;4806651;29;20445;-72
2022/04/07 18:18:28;;;;;;;;;;;;;;;13.86;100.00;96921.97;4807003;29;19961;-72
2022/04/07 18:20:56;;;;;;;;;;;;;;;13.74;100.00;96906.72;4805462;29;19976;-72
2022/04/07 18:23:24;;;;;;;;;;;;;;;13.72;100.00;96938.06;4808167;29;19952;-72
2022/04/07 18:25:51;;;;;;;;;;;;;;;13.77;100.00;96925.47;4807126;29;19962;-72
2022/04/07 18:28:19;;;;;;;;;;;;;;;13.78;100.00;96949.53;4808786;29;19960;-72
2022/04/07 18:30:46;;;;;;;;;;;;;;;13.76;100.00;96935.16;4816427;29;19958;-71
2022/04/07 18:33:14;;;;;;;;;;;;;;;13.70;100.00;96960.19;4801186;29;19952;-71
2022/04/07 18:35:43;;;;;;;;;;;;;;;13.68;100.00;96957.06;4808348;29;19954;-72
2022/04/07 18:38:10;;;;;;;;;;;;;;;13.63;100.00;96949.19;4807459;29;19955;-72
2022/04/07 18:40:38;;;;;;;;;;;;;;;13.68;100.00;96968.31;4814150;29;19972;-72
2022/04/07 18:43:05;;;;;;;;;;;;;;;13.66;100.00;96976.41;4810681;29;19981;-72
2022/04/07 18:45:32;;;;;;;;;;;;;;;13.66;100.00;96967.97;4811688;29;19955;-72
2022/04/07 18:48:01;;;;;;;;;;;;;;;13.59;100.00;96962.59;4810185;29;19956;-73
2022/04/07 18:50:31;;;;;;;;;;;;;;;13.55;100.00;96969.53;4801533;29;19954;-72
2022/04/07 18:52:59;;;;;;;;;;;;;;;13.58;100.00;96960.19;4803442;29;19960;-72
2022/04/07 18:55:28;;;;;;;;;;;;;;;13.52;100.00;96950.78;4806691;29;19961;-72
2022/04/07 18:57:55;;;;;;;;;;;;;;;13.52;100.00;96965.59;4810019;29;20234;-72
2022/04/07 19:00:23;;;;;;;;;;;;;;;13.50;100.00;96984.91;4805834;29;19954;-72
2022/04/07 19:02:50;;;;;;;;;;;;;;;13.38;100.00;96965.25;4810026;29;19962;-72
2022/04/07 19:05:19;;;;;;;;;;;;;;;13.44;100.00;96994.34;4805849;29;19959;-72
2022/04/07 19:07:47;;;;;;;;;;;;;;;13.42;100.00;96996.84;4801822;29;19963;-71
2022/04/07 19:10:14;;;;;;;;;;;;;;;13.40;100.00;96996.50;4804319;29;19961;-71
2022/04/07 19:12:42;;;;;;;;;;;;;;;13.37;100.00;97009.41;4805981;29;19954;-72
2022/04/07 19:15:10;;;;;;;;;;;;;;;13.31;100.00;97004.78;4809100;29;20236;-72
2022/04/07 19:17:38;;;;;;;;;;;;;;;13.28;100.00;97005.69;4808414;29;20396;-72
2022/04/07 19:20:06;;;;;;;;;;;;;;;13.26;100.00;97008.94;4808183;29;19970;-72
2022/04/07 19:22:33;;;;;;;;;;;;;;;13.29;100.00;97016.47;4814493;29;19973;-72
2022/04/07 19:25:00;;;;;;;;;;;;;;;13.21;100.00;97009.47;4802741;29;19978;-71
2022/04/07 19:27:28;;;;;;;;;;;;;;;13.15;100.00;97025.31;4805914;29;19958;-71
2022/04/07 19:29:55;;;;;;;;;;;;;;;13.21;100.00;97003.88;4810112;29;20260;-72
